sensor_id;sensor_type;location;lat;lon;timestamp;P1;durP1;ratioP1;P2;durP2;ratioP2
59306;SDS011;47983;53.016;-2.260;2023-04-03T00:01:21;5.75;;;2.22;;
59306;SDS011;47983;53.016;-2.260;2023-04-03T00:03:49;6.32;;;2.35;;
59306;SDS011;47983;53.016;-2.260;2023-04-03T00:06:17;7.03;;;2.30;;
59306;SDS011;47983;53.016;-2.260;2023-04-03T00:08:44;11.32;;;2.53;;
59306;SDS011;47983;53.016;-2.260;2023-04-03T00:11:12;8.27;;;2.80;;
59306;SDS011;47983;53.016;-2.260;2023-04-03T00:13:40;8.52;;;3.22;;
59306;SDS011;47983;53.016;-2.260;2023-04-03T00:16:09;10.48;;;2.50;;
59306;SDS011;47983;53.016;-2.260;2023-04-03T00:18:38;5.53;;;2.63;;
59306;SDS011;47983;53.016;-2.260;2023-04-03T00:21:06;11.05;;;2.60;;
59306;SDS011;47983;53.016;-2.260;2023-04-03T00:23:34;10.70;;;2.63;;
59306;SDS011;47983;53.016;-2.260;2023-04-03T00:26:02;9.95;;;2.35;;
59306;SDS011;47983;53.016;-2.260;2023-04-03T00:28:30;11.73;;;3.40;;
59306;SDS011;47983;53.016;-2.260;2023-04-03T00:30:57;6.35;;;2.78;;
59306;SDS011;47983;53.016;-2.260;2023-04-03T00:33:25;10.82;;;2.28;;
59306;SDS011;47983;53.016;-2.260;2023-04-03T00:35:53;14.48;;;2.67;;
59306;SDS011;47983;53.016;-2.260;2023-04-03T00:38:21;7.38;;;2.60;;
59306;SDS011;47983;53.016;-2.260;2023-04-03T00:40:48;9.52;;;2.47;;
59306;SDS011;47983;53.016;-2.260;2023-04-03T00:43:21;8.93;;;2.28;;
59306;SDS011;47983;53.016;-2.260;2023-04-03T00:45:51;13.52;;;2.85;;
59306;SDS011;47983;53.016;-2.260;2023-04-03T00:51:09;8.45;;;2.20;;
59306;SDS011;47983;53.016;-2.260;2023-04-03T00:53:43;7.18;;;2.10;;
59306;SDS011;47983;53.016;-2.260;2023-04-03T00:56:15;4.95;;;2.17;;
59306;SDS011;47983;53.016;-2.260;2023-04-03T00:58:55;7.80;;;2.17;;
59306;SDS011;47983;53.016;-2.260;2023-04-03T01:01:29;5.20;;;1.90;;
59306;SDS011;47983;53.016;-2.260;2023-04-03T01:03:59;7.05;;;1.73;;
59306;SDS011;47983;53.016;-2.260;2023-04-03T01:06:31;8.15;;;2.53;;
59306;SDS011;47983;53.016;-2.260;2023-04-03T01:09:07;8.48;;;2.60;;
59306;SDS011;47983;53.016;-2.260;2023-04-03T01:11:37;5.10;;;2.35;;
59306;SDS011;47983;53.016;-2.260;2023-04-03T01:14:06;6.70;;;1.98;;
59306;SDS011;47983;53.016;-2.260;2023-04-03T01:16:37;5.97;;;2.10;;
59306;SDS011;47983;53.016;-2.260;2023-04-03T01:19:05;8.07;;;2.38;;
59306;SDS011;47983;53.016;-2.260;2023-04-03T01:26:59;9.02;;;2.95;;
59306;SDS011;47983;53.016;-2.260;2023-04-03T01:29:30;9.32;;;2.30;;
59306;SDS011;47983;53.016;-2.260;2023-04-03T01:31:59;8.10;;;2.10;;
59306;SDS011;47983;53.016;-2.260;2023-04-03T01:34:28;7.60;;;2.33;;
59306;SDS011;47983;53.016;-2.260;2023-04-03T01:36:56;5.68;;;2.13;;
59306;SDS011;47983;53.016;-2.260;2023-04-03T01:39:30;11.70;;;2.38;;
59306;SDS011;47983;53.016;-2.260;2023-04-03T01:41:57;10.63;;;3.20;;
59306;SDS011;47983;53.016;-2.260;2023-04-03T01:44:30;10.23;;;2.80;;
59306;SDS011;47983;53.016;-2.260;2023-04-03T01:46:59;8.57;;;2.15;;
59306;SDS011;47983;53.016;-2.260;2023-04-03T01:49:28;10.25;;;2.65;;
59306;SDS011;47983;53.016;-2.260;2023-04-03T01:51:56;7.25;;;3.25;;
59306;SDS011;47983;53.016;-2.260;2023-04-03T01:54:26;11.88;;;2.90;;
59306;SDS011;47983;53.016;-2.260;2023-04-03T01:56:54;7.95;;;2.45;;
59306;SDS011;47983;53.016;-2.260;2023-04-03T01:59:22;13.73;;;2.83;;
59306;SDS011;47983;53.016;-2.260;2023-04-03T02:01:50;9.50;;;2.53;;
59306;SDS011;47983;53.016;-2.260;2023-04-03T02:04:18;5.88;;;2.33;;
59306;SDS011;47983;53.016;-2.260;2023-04-03T02:06:46;10.43;;;2.53;;
59306;SDS011;47983;53.016;-2.260;2023-04-03T02:09:14;8.77;;;2.40;;
59306;SDS011;47983;53.016;-2.260;2023-04-03T02:11:42;14.77;;;2.67;;
59306;SDS011;47983;53.016;-2.260;2023-04-03T02:14:10;10.98;;;2.15;;
59306;SDS011;47983;53.016;-2.260;2023-04-03T02:16:37;5.95;;;1.73;;
59306;SDS011;47983;53.016;-2.260;2023-04-03T02:19:06;6.32;;;2.00;;
59306;SDS011;47983;53.016;-2.260;2023-04-03T02:21:33;10.63;;;3.10;;
59306;SDS011;47983;53.016;-2.260;2023-04-03T02:24:01;9.10;;;2.33;;
59306;SDS011;47983;53.016;-2.260;2023-04-03T02:26:29;5.45;;;1.80;;
59306;SDS011;47983;53.016;-2.260;2023-04-03T02:28:57;8.60;;;2.28;;
59306;SDS011;47983;53.016;-2.260;2023-04-03T02:31:24;7.13;;;1.60;;
59306;SDS011;47983;53.016;-2.260;2023-04-03T02:33:55;5.50;;;2.17;;
59306;SDS011;47983;53.016;-2.260;2023-04-03T02:36:23;4.57;;;1.45;;
59306;SDS011;47983;53.016;-2.260;2023-04-03T02:38:57;3.70;;;1.77;;
59306;SDS011;47983;53.016;-2.260;2023-04-03T02:41:28;4.50;;;1.70;;
59306;SDS011;47983;53.016;-2.260;2023-04-03T02:44:04;4.28;;;1.35;;
59306;SDS011;47983;53.016;-2.260;2023-04-03T02:46:33;6.22;;;2.13;;
59306;SDS011;47983;53.016;-2.260;2023-04-03T02:49:02;8.85;;;2.13;;
59306;SDS011;47983;53.016;-2.260;2023-04-03T02:51:30;8.27;;;1.90;;
59306;SDS011;47983;53.016;-2.260;2023-04-03T02:54:00;10.63;;;2.13;;
59306;SDS011;47983;53.016;-2.260;2023-04-03T02:56:31;4.72;;;1.92;;
59306;SDS011;47983;53.016;-2.260;2023-04-03T02:58:59;11.27;;;2.15;;
59306;SDS011;47983;53.016;-2.260;2023-04-03T03:01:27;8.30;;;1.95;;
59306;SDS011;47983;53.016;-2.260;2023-04-03T03:03:58;8.52;;;2.30;;
59306;SDS011;47983;53.016;-2.260;2023-04-03T03:06:29;10.80;;;1.67;;
59306;SDS011;47983;53.016;-2.260;2023-04-03T03:08:57;8.07;;;1.92;;
59306;SDS011;47983;53.016;-2.260;2023-04-03T03:11:25;7.85;;;2.00;;
59306;SDS011;47983;53.016;-2.260;2023-04-03T03:13:53;6.53;;;1.88;;
59306;SDS011;47983;53.016;-2.260;2023-04-03T03:16:21;8.77;;;2.63;;
59306;SDS011;47983;53.016;-2.260;2023-04-03T03:18:49;14.32;;;3.30;;
59306;SDS011;47983;53.016;-2.260;2023-04-03T03:21:17;6.55;;;2.00;;
59306;SDS011;47983;53.016;-2.260;2023-04-03T03:23:47;6.82;;;1.95;;
59306;SDS011;47983;53.016;-2.260;2023-04-03T03:26:15;4.55;;;1.60;;
59306;SDS011;47983;53.016;-2.260;2023-04-03T03:28:43;10.50;;;2.53;;
59306;SDS011;47983;53.016;-2.260;2023-04-03T03:31:11;5.03;;;2.00;;
59306;SDS011;47983;53.016;-2.260;2023-04-03T03:33:40;14.25;;;4.97;;
59306;SDS011;47983;53.016;-2.260;2023-04-03T03:36:08;7.70;;;2.25;;
59306;SDS011;47983;53.016;-2.260;2023-04-03T03:38:36;3.95;;;2.10;;
59306;SDS011;47983;53.016;-2.260;2023-04-03T03:41:05;7.43;;;1.77;;
59306;SDS011;47983;53.016;-2.260;2023-04-03T03:43:34;6.25;;;2.13;;
59306;SDS011;47983;53.016;-2.260;2023-04-03T03:46:04;8.20;;;1.92;;
59306;SDS011;47983;53.016;-2.260;2023-04-03T03:48:32;20.15;;;2.85;;
59306;SDS011;47983;53.016;-2.260;2023-04-03T03:51:01;7.28;;;2.58;;
59306;SDS011;47983;53.016;-2.260;2023-04-03T03:53:33;7.80;;;2.45;;
59306;SDS011;47983;53.016;-2.260;2023-04-03T03:56:05;8.77;;;2.00;;
59306;SDS011;47983;53.016;-2.260;2023-04-03T03:58:36;8.45;;;1.92;;
59306;SDS011;47983;53.016;-2.260;2023-04-03T04:01:04;6.80;;;1.98;;
59306;SDS011;47983;53.016;-2.260;2023-04-03T04:03:38;9.32;;;2.58;;
59306;SDS011;47983;53.016;-2.260;2023-04-03T04:06:08;4.38;;;1.98;;
59306;SDS011;47983;53.016;-2.260;2023-04-03T04:08:36;5.75;;;2.17;;
59306;SDS011;47983;53.016;-2.260;2023-04-03T04:11:06;15.68;;;3.00;;
59306;SDS011;47983;53.016;-2.260;2023-04-03T04:13:35;5.13;;;2.03;;
59306;SDS011;47983;53.016;-2.260;2023-04-03T04:16:04;5.63;;;2.45;;
59306;SDS011;47983;53.016;-2.260;2023-04-03T04:18:33;12.57;;;2.08;;
59306;SDS011;47983;53.016;-2.260;2023-04-03T04:21:01;8.20;;;2.15;;
59306;SDS011;47983;53.016;-2.260;2023-04-03T04:23:30;9.52;;;2.42;;
59306;SDS011;47983;53.016;-2.260;2023-04-03T04:26:00;9.85;;;3.05;;
59306;SDS011;47983;53.016;-2.260;2023-04-03T04:28:31;11.65;;;3.92;;
59306;SDS011;47983;53.016;-2.260;2023-04-03T04:31:03;12.38;;;2.00;;
59306;SDS011;47983;53.016;-2.260;2023-04-03T04:33:31;14.90;;;2.78;;
59306;SDS011;47983;53.016;-2.260;2023-04-03T04:36:02;11.15;;;2.17;;
59306;SDS011;47983;53.016;-2.260;2023-04-03T04:38:30;4.43;;;2.03;;
59306;SDS011;47983;53.016;-2.260;2023-04-03T04:40:58;9.50;;;2.95;;
59306;SDS011;47983;53.016;-2.260;2023-04-03T04:43:29;11.27;;;2.40;;
59306;SDS011;47983;53.016;-2.260;2023-04-03T04:46:04;6.35;;;2.35;;
59306;SDS011;47983;53.016;-2.260;2023-04-03T04:48:38;6.03;;;2.20;;
59306;SDS011;47983;53.016;-2.260;2023-04-03T04:51:08;8.85;;;1.73;;
59306;SDS011;47983;53.016;-2.260;2023-04-03T04:53:38;11.48;;;2.80;;
59306;SDS011;47983;53.016;-2.260;2023-04-03T04:56:07;5.20;;;2.00;;
59306;SDS011;47983;53.016;-2.260;2023-04-03T04:58:39;7.20;;;2.45;;
59306;SDS011;47983;53.016;-2.260;2023-04-03T05:01:08;10.20;;;2.80;;
59306;SDS011;47983;53.016;-2.260;2023-04-03T05:03:56;18.75;;;2.42;;
59306;SDS011;47983;53.016;-2.260;2023-04-03T05:06:27;8.75;;;2.80;;
59306;SDS011;47983;53.016;-2.260;2023-04-03T05:11:25;8.55;;;2.35;;
59306;SDS011;47983;53.016;-2.260;2023-04-03T05:13:55;8.63;;;3.05;;
59306;SDS011;47983;53.016;-2.260;2023-04-03T05:16:24;31.88;;;3.35;;
59306;SDS011;47983;53.016;-2.260;2023-04-03T05:18:53;9.25;;;3.00;;
59306;SDS011;47983;53.016;-2.260;2023-04-03T05:21:22;8.00;;;3.00;;
59306;SDS011;47983;53.016;-2.260;2023-04-03T05:23:53;10.48;;;2.78;;
59306;SDS011;47983;53.016;-2.260;2023-04-03T05:26:21;7.40;;;3.00;;
59306;SDS011;47983;53.016;-2.260;2023-04-03T05:28:50;8.20;;;2.40;;
59306;SDS011;47983;53.016;-2.260;2023-04-03T05:31:19;9.40;;;2.95;;
59306;SDS011;47983;53.016;-2.260;2023-04-03T05:33:56;9.13;;;3.42;;
59306;SDS011;47983;53.016;-2.260;2023-04-03T05:39:02;11.60;;;3.15;;
59306;SDS011;47983;53.016;-2.260;2023-04-03T05:41:32;10.93;;;2.97;;
59306;SDS011;47983;53.016;-2.260;2023-04-03T05:44:00;8.93;;;2.95;;
59306;SDS011;47983;53.016;-2.260;2023-04-03T05:46:28;12.38;;;3.42;;
59306;SDS011;47983;53.016;-2.260;2023-04-03T05:51:32;8.80;;;2.45;;
59306;SDS011;47983;53.016;-2.260;2023-04-03T05:54:24;13.93;;;3.28;;
59306;SDS011;47983;53.016;-2.260;2023-04-03T05:57:04;23.75;;;3.55;;
59306;SDS011;47983;53.016;-2.260;2023-04-03T05:59:32;10.63;;;3.10;;
59306;SDS011;47983;53.016;-2.260;2023-04-03T06:02:00;16.60;;;2.90;;
59306;SDS011;47983;53.016;-2.260;2023-04-03T06:04:28;8.77;;;3.30;;
59306;SDS011;47983;53.016;-2.260;2023-04-03T06:06:57;21.67;;;4.47;;
59306;SDS011;47983;53.016;-2.260;2023-04-03T06:09:28;11.85;;;3.33;;
59306;SDS011;47983;53.016;-2.260;2023-04-03T06:11:56;11.73;;;3.72;;
59306;SDS011;47983;53.016;-2.260;2023-04-03T06:14:27;12.93;;;3.08;;
59306;SDS011;47983;53.016;-2.260;2023-04-03T06:16:57;12.48;;;3.63;;
59306;SDS011;47983;53.016;-2.260;2023-04-03T06:19:27;7.70;;;3.13;;
59306;SDS011;47983;53.016;-2.260;2023-04-03T06:21:58;17.20;;;4.10;;
59306;SDS011;47983;53.016;-2.260;2023-04-03T06:24:25;8.00;;;2.97;;
59306;SDS011;47983;53.016;-2.260;2023-04-03T06:26:53;7.05;;;2.90;;
59306;SDS011;47983;53.016;-2.260;2023-04-03T06:29:21;11.30;;;3.40;;
59306;SDS011;47983;53.016;-2.260;2023-04-03T06:31:49;5.03;;;2.80;;
59306;SDS011;47983;53.016;-2.260;2023-04-03T06:34:18;5.60;;;2.50;;
59306;SDS011;47983;53.016;-2.260;2023-04-03T06:36:45;8.27;;;3.40;;
59306;SDS011;47983;53.016;-2.260;2023-04-03T06:39:14;13.05;;;3.25;;
59306;SDS011;47983;53.016;-2.260;2023-04-03T06:41:44;9.57;;;4.03;;
59306;SDS011;47983;53.016;-2.260;2023-04-03T06:44:12;14.13;;;3.53;;
59306;SDS011;47983;53.016;-2.260;2023-04-03T06:46:43;9.02;;;2.88;;
59306;SDS011;47983;53.016;-2.260;2023-04-03T06:49:11;7.85;;;3.17;;
59306;SDS011;47983;53.016;-2.260;2023-04-03T06:51:39;8.85;;;2.55;;
59306;SDS011;47983;53.016;-2.260;2023-04-03T06:54:07;9.13;;;3.05;;
59306;SDS011;47983;53.016;-2.260;2023-04-03T06:56:35;16.65;;;3.47;;
59306;SDS011;47983;53.016;-2.260;2023-04-03T06:59:03;5.70;;;2.05;;
59306;SDS011;47983;53.016;-2.260;2023-04-03T07:01:31;7.38;;;1.98;;
59306;SDS011;47983;53.016;-2.260;2023-04-03T07:03:59;13.18;;;3.17;;
59306;SDS011;47983;53.016;-2.260;2023-04-03T07:06:34;3.90;;;1.92;;
59306;SDS011;47983;53.016;-2.260;2023-04-03T07:09:04;10.93;;;2.13;;
59306;SDS011;47983;53.016;-2.260;2023-04-03T07:11:32;7.07;;;1.75;;
59306;SDS011;47983;53.016;-2.260;2023-04-03T07:14:00;10.50;;;2.25;;
59306;SDS011;47983;53.016;-2.260;2023-04-03T07:16:28;13.18;;;2.60;;
59306;SDS011;47983;53.016;-2.260;2023-04-03T07:18:58;3.58;;;1.40;;
59306;SDS011;47983;53.016;-2.260;2023-04-03T07:21:26;5.05;;;2.10;;
59306;SDS011;47983;53.016;-2.260;2023-04-03T07:23:54;9.38;;;2.35;;
59306;SDS011;47983;53.016;-2.260;2023-04-03T07:26:22;13.55;;;2.15;;
59306;SDS011;47983;53.016;-2.260;2023-04-03T07:28:52;5.82;;;1.90;;
59306;SDS011;47983;53.016;-2.260;2023-04-03T07:31:20;7.72;;;2.00;;
59306;SDS011;47983;53.016;-2.260;2023-04-03T07:33:51;11.70;;;2.40;;
59306;SDS011;47983;53.016;-2.260;2023-04-03T07:36:19;6.65;;;1.70;;
59306;SDS011;47983;53.016;-2.260;2023-04-03T07:38:48;9.98;;;1.90;;
59306;SDS011;47983;53.016;-2.260;2023-04-03T07:41:17;5.18;;;1.42;;
59306;SDS011;47983;53.016;-2.260;2023-04-03T07:43:47;4.72;;;1.55;;
59306;SDS011;47983;53.016;-2.260;2023-04-03T07:46:16;16.10;;;2.13;;
59306;SDS011;47983;53.016;-2.260;2023-04-03T07:48:44;7.13;;;1.88;;
59306;SDS011;47983;53.016;-2.260;2023-04-03T07:51:12;9.55;;;1.65;;
59306;SDS011;47983;53.016;-2.260;2023-04-03T07:53:40;4.00;;;1.90;;
59306;SDS011;47983;53.016;-2.260;2023-04-03T07:56:08;6.57;;;1.60;;
59306;SDS011;47983;53.016;-2.260;2023-04-03T07:58:36;4.97;;;1.35;;
59306;SDS011;47983;53.016;-2.260;2023-04-03T08:01:04;10.73;;;2.45;;
59306;SDS011;47983;53.016;-2.260;2023-04-03T08:03:33;7.65;;;1.67;;
59306;SDS011;47983;53.016;-2.260;2023-04-03T08:06:04;5.85;;;1.58;;
59306;SDS011;47983;53.016;-2.260;2023-04-03T08:08:41;10.25;;;1.63;;
59306;SDS011;47983;53.016;-2.260;2023-04-03T08:11:09;1.75;;;1.23;;
59306;SDS011;47983;53.016;-2.260;2023-04-03T08:13:37;6.25;;;2.00;;
59306;SDS011;47983;53.016;-2.260;2023-04-03T08:16:12;6.20;;;1.23;;
59306;SDS011;47983;53.016;-2.260;2023-04-03T08:18:43;12.27;;;1.67;;
59306;SDS011;47983;53.016;-2.260;2023-04-03T08:21:11;7.28;;;2.53;;
59306;SDS011;47983;53.016;-2.260;2023-04-03T08:23:39;11.15;;;1.60;;
59306;SDS011;47983;53.016;-2.260;2023-04-03T08:28:37;4.47;;;1.08;;
59306;SDS011;47983;53.016;-2.260;2023-04-03T08:31:07;9.05;;;1.35;;
59306;SDS011;47983;53.016;-2.260;2023-04-03T08:33:38;13.38;;;1.52;;
59306;SDS011;47983;53.016;-2.260;2023-04-03T08:36:07;7.70;;;1.30;;
59306;SDS011;47983;53.016;-2.260;2023-04-03T08:38:42;8.23;;;1.73;;
59306;SDS011;47983;53.016;-2.260;2023-04-03T08:49:51;4.70;;;1.08;;
59306;SDS011;47983;53.016;-2.260;2023-04-03T08:52:28;5.63;;;1.20;;
59306;SDS011;47983;53.016;-2.260;2023-04-03T08:55:24;3.83;;;0.70;;
59306;SDS011;47983;53.016;-2.260;2023-04-03T09:00:32;6.85;;;1.20;;
59306;SDS011;47983;53.016;-2.260;2023-04-03T09:03:22;9.13;;;1.40;;
59306;SDS011;47983;53.016;-2.260;2023-04-03T09:09:24;8.13;;;0.80;;
59306;SDS011;47983;53.016;-2.260;2023-04-03T09:11:36;6.85;;;1.08;;
59306;SDS011;47983;53.016;-2.260;2023-04-03T09:14:33;12.32;;;0.88;;
59306;SDS011;47983;53.016;-2.260;2023-04-03T09:17:12;9.30;;;1.45;;
59306;SDS011;47983;53.016;-2.260;2023-04-03T09:22:51;12.73;;;1.95;;
59306;SDS011;47983;53.016;-2.260;2023-04-03T09:30:23;12.35;;;1.63;;
59306;SDS011;47983;53.016;-2.260;2023-04-03T09:32:53;2.47;;;1.10;;
59306;SDS011;47983;53.016;-2.260;2023-04-03T09:35:27;6.43;;;0.98;;
59306;SDS011;47983;53.016;-2.260;2023-04-03T09:40:45;5.28;;;1.30;;
59306;SDS011;47983;53.016;-2.260;2023-04-03T09:43:33;10.38;;;1.98;;
59306;SDS011;47983;53.016;-2.260;2023-04-03T09:46:52;7.50;;;1.25;;
59306;SDS011;47983;53.016;-2.260;2023-04-03T09:49:03;3.85;;;1.63;;
59306;SDS011;47983;53.016;-2.260;2023-04-03T09:51:36;5.43;;;1.40;;
59306;SDS011;47983;53.016;-2.260;2023-04-03T09:54:47;4.75;;;1.83;;
59306;SDS011;47983;53.016;-2.260;2023-04-03T09:56:58;8.52;;;1.98;;
59306;SDS011;47983;53.016;-2.260;2023-04-03T09:59:33;11.43;;;2.45;;
59306;SDS011;47983;53.016;-2.260;2023-04-03T10:02:16;6.63;;;1.40;;
59306;SDS011;47983;53.016;-2.260;2023-04-03T10:04:51;7.43;;;1.17;;
59306;SDS011;47983;53.016;-2.260;2023-04-03T10:07:35;8.90;;;1.58;;
59306;SDS011;47983;53.016;-2.260;2023-04-03T10:12:45;7.60;;;1.60;;
59306;SDS011;47983;53.016;-2.260;2023-04-03T10:15:14;8.80;;;1.75;;
59306;SDS011;47983;53.016;-2.260;2023-04-03T10:17:57;7.53;;;1.48;;
59306;SDS011;47983;53.016;-2.260;2023-04-03T10:20:48;4.68;;;1.55;;
59306;SDS011;47983;53.016;-2.260;2023-04-03T10:23:21;9.20;;;2.80;;
59306;SDS011;47983;53.016;-2.260;2023-04-03T10:28:35;9.13;;;1.73;;
59306;SDS011;47983;53.016;-2.260;2023-04-03T10:31:22;5.13;;;1.73;;
59306;SDS011;47983;53.016;-2.260;2023-04-03T10:42:07;6.93;;;1.70;;
59306;SDS011;47983;53.016;-2.260;2023-04-03T10:51:12;9.43;;;1.77;;
59306;SDS011;47983;53.016;-2.260;2023-04-03T10:56:32;2.92;;;1.60;;
59306;SDS011;47983;53.016;-2.260;2023-04-03T10:59:13;5.32;;;1.80;;
59306;SDS011;47983;53.016;-2.260;2023-04-03T11:01:59;13.65;;;2.30;;
59306;SDS011;47983;53.016;-2.260;2023-04-03T11:04:33;8.40;;;2.05;;
59306;SDS011;47983;53.016;-2.260;2023-04-03T11:07:07;7.00;;;1.80;;
59306;SDS011;47983;53.016;-2.260;2023-04-03T11:09:40;3.97;;;2.00;;
59306;SDS011;47983;53.016;-2.260;2023-04-03T11:12:19;5.38;;;2.00;;
59306;SDS011;47983;53.016;-2.260;2023-04-03T11:15:00;4.93;;;2.13;;
59306;SDS011;47983;53.016;-2.260;2023-04-03T11:17:34;11.57;;;2.17;;
59306;SDS011;47983;53.016;-2.260;2023-04-03T11:20:13;5.57;;;1.90;;
59306;SDS011;47983;53.016;-2.260;2023-04-03T11:22:48;3.55;;;1.60;;
59306;SDS011;47983;53.016;-2.260;2023-04-03T11:25:23;4.60;;;1.90;;
59306;SDS011;47983;53.016;-2.260;2023-04-03T11:35:47;7.75;;;1.90;;
59306;SDS011;47983;53.016;-2.260;2023-04-03T11:38:23;6.10;;;1.92;;
59306;SDS011;47983;53.016;-2.260;2023-04-03T11:40:56;7.22;;;1.98;;
59306;SDS011;47983;53.016;-2.260;2023-04-03T11:43:29;4.75;;;1.80;;
59306;SDS011;47983;53.016;-2.260;2023-04-03T11:45:59;4.93;;;2.20;;
59306;SDS011;47983;53.016;-2.260;2023-04-03T11:53:49;3.70;;;1.95;;
59306;SDS011;47983;53.016;-2.260;2023-04-03T12:01:53;7.22;;;1.65;;
59306;SDS011;47983;53.016;-2.260;2023-04-03T12:04:24;8.50;;;2.72;;
59306;SDS011;47983;53.016;-2.260;2023-04-03T12:07:16;7.40;;;1.90;;
59306;SDS011;47983;53.016;-2.260;2023-04-03T12:12:47;5.40;;;2.03;;
59306;SDS011;47983;53.016;-2.260;2023-04-03T12:15:12;5.35;;;1.40;;
59306;SDS011;47983;53.016;-2.260;2023-04-03T12:17:50;4.30;;;1.50;;
59306;SDS011;47983;53.016;-2.260;2023-04-03T12:23:34;5.38;;;1.50;;
59306;SDS011;47983;53.016;-2.260;2023-04-03T12:28:44;5.28;;;1.83;;
59306;SDS011;47983;53.016;-2.260;2023-04-03T12:31:16;7.53;;;1.85;;
59306;SDS011;47983;53.016;-2.260;2023-04-03T12:42:34;6.13;;;1.63;;
59306;SDS011;47983;53.016;-2.260;2023-04-03T12:45:24;3.60;;;1.42;;
59306;SDS011;47983;53.016;-2.260;2023-04-03T12:47:54;8.10;;;1.75;;
59306;SDS011;47983;53.016;-2.260;2023-04-03T12:53:04;6.50;;;1.40;;
59306;SDS011;47983;53.016;-2.260;2023-04-03T12:55:54;7.65;;;1.80;;
59306;SDS011;47983;53.016;-2.260;2023-04-03T12:58:26;6.00;;;1.70;;
59306;SDS011;47983;53.016;-2.260;2023-04-03T13:03:28;7.25;;;1.42;;
59306;SDS011;47983;53.016;-2.260;2023-04-03T13:06:06;3.95;;;1.50;;
59306;SDS011;47983;53.016;-2.260;2023-04-03T13:08:48;3.65;;;1.20;;
59306;SDS011;47983;53.016;-2.260;2023-04-03T13:11:16;4.65;;;1.67;;
59306;SDS011;47983;53.016;-2.260;2023-04-03T13:14:00;8.93;;;1.48;;
59306;SDS011;47983;53.016;-2.260;2023-04-03T13:16:40;5.07;;;1.50;;
59306;SDS011;47983;53.016;-2.260;2023-04-03T13:19:16;4.65;;;1.58;;
59306;SDS011;47983;53.016;-2.260;2023-04-03T13:21:44;7.55;;;1.05;;
59306;SDS011;47983;53.016;-2.260;2023-04-03T13:24:13;5.32;;;1.45;;
59306;SDS011;47983;53.016;-2.260;2023-04-03T13:26:41;4.10;;;1.50;;
59306;SDS011;47983;53.016;-2.260;2023-04-03T13:29:27;5.28;;;1.33;;
59306;SDS011;47983;53.016;-2.260;2023-04-03T13:31:58;7.88;;;1.40;;
59306;SDS011;47983;53.016;-2.260;2023-04-03T13:34:41;7.20;;;1.40;;
59306;SDS011;47983;53.016;-2.260;2023-04-03T13:37:26;5.47;;;1.30;;
59306;SDS011;47983;53.016;-2.260;2023-04-03T13:40:00;5.32;;;1.90;;
59306;SDS011;47983;53.016;-2.260;2023-04-03T13:42:38;5.05;;;1.70;;
59306;SDS011;47983;53.016;-2.260;2023-04-03T13:47:51;5.28;;;1.70;;
59306;SDS011;47983;53.016;-2.260;2023-04-03T13:50:22;6.22;;;1.45;;
59306;SDS011;47983;53.016;-2.260;2023-04-03T13:52:59;4.57;;;1.63;;
59306;SDS011;47983;53.016;-2.260;2023-04-03T13:55:33;4.90;;;1.55;;
59306;SDS011;47983;53.016;-2.260;2023-04-03T14:06:12;4.03;;;1.40;;
59306;SDS011;47983;53.016;-2.260;2023-04-03T14:08:43;3.67;;;1.20;;
59306;SDS011;47983;53.016;-2.260;2023-04-03T14:11:15;3.42;;;1.75;;
59306;SDS011;47983;53.016;-2.260;2023-04-03T14:13:49;4.97;;;1.75;;
59306;SDS011;47983;53.016;-2.260;2023-04-03T14:16:18;3.50;;;1.50;;
59306;SDS011;47983;53.016;-2.260;2023-04-03T14:18:50;5.13;;;1.60;;
59306;SDS011;47983;53.016;-2.260;2023-04-03T14:21:19;4.53;;;1.50;;
59306;SDS011;47983;53.016;-2.260;2023-04-03T14:23:48;5.18;;;1.00;;
59306;SDS011;47983;53.016;-2.260;2023-04-03T14:26:18;5.90;;;1.52;;
59306;SDS011;47983;53.016;-2.260;2023-04-03T14:28:49;3.97;;;1.40;;
59306;SDS011;47983;53.016;-2.260;2023-04-03T14:31:19;6.57;;;1.67;;
59306;SDS011;47983;53.016;-2.260;2023-04-03T14:33:48;3.97;;;1.60;;
59306;SDS011;47983;53.016;-2.260;2023-04-03T14:36:18;5.70;;;1.67;;
59306;SDS011;47983;53.016;-2.260;2023-04-03T14:38:52;3.55;;;1.45;;
59306;SDS011;47983;53.016;-2.260;2023-04-03T14:41:21;5.70;;;1.85;;
59306;SDS011;47983;53.016;-2.260;2023-04-03T14:43:50;4.68;;;1.63;;
59306;SDS011;47983;53.016;-2.260;2023-04-03T14:46:30;9.48;;;1.55;;
59306;SDS011;47983;53.016;-2.260;2023-04-03T14:49:22;3.20;;;1.77;;
59306;SDS011;47983;53.016;-2.260;2023-04-03T14:51:56;6.70;;;2.00;;
59306;SDS011;47983;53.016;-2.260;2023-04-03T14:54:27;3.10;;;1.02;;
59306;SDS011;47983;53.016;-2.260;2023-04-03T14:56:57;6.50;;;1.42;;
59306;SDS011;47983;53.016;-2.260;2023-04-03T14:59:26;9.52;;;1.27;;
59306;SDS011;47983;53.016;-2.260;2023-04-03T15:01:55;3.63;;;1.40;;
59306;SDS011;47983;53.016;-2.260;2023-04-03T15:04:23;5.30;;;1.83;;
59306;SDS011;47983;53.016;-2.260;2023-04-03T15:06:52;8.33;;;1.70;;
59306;SDS011;47983;53.016;-2.260;2023-04-03T15:09:23;4.97;;;1.40;;
59306;SDS011;47983;53.016;-2.260;2023-04-03T15:11:53;7.78;;;1.70;;
59306;SDS011;47983;53.016;-2.260;2023-04-03T15:14:22;5.30;;;1.50;;
59306;SDS011;47983;53.016;-2.260;2023-04-03T15:17:04;5.57;;;1.70;;
59306;SDS011;47983;53.016;-2.260;2023-04-03T15:19:35;2.95;;;1.30;;
59306;SDS011;47983;53.016;-2.260;2023-04-03T15:22:05;5.53;;;1.45;;
59306;SDS011;47983;53.016;-2.260;2023-04-03T15:24:32;8.63;;;1.48;;
59306;SDS011;47983;53.016;-2.260;2023-04-03T15:27:00;5.18;;;1.63;;
59306;SDS011;47983;53.016;-2.260;2023-04-03T15:29:29;5.38;;;1.45;;
59306;SDS011;47983;53.016;-2.260;2023-04-03T15:31:57;5.07;;;1.45;;
59306;SDS011;47983;53.016;-2.260;2023-04-03T15:34:25;8.23;;;1.90;;
59306;SDS011;47983;53.016;-2.260;2023-04-03T15:36:52;4.10;;;1.35;;
59306;SDS011;47983;53.016;-2.260;2023-04-03T15:39:20;3.42;;;1.40;;
59306;SDS011;47983;53.016;-2.260;2023-04-03T15:41:49;6.18;;;1.70;;
59306;SDS011;47983;53.016;-2.260;2023-04-03T15:44:19;5.43;;;1.52;;
59306;SDS011;47983;53.016;-2.260;2023-04-03T15:46:47;7.53;;;1.77;;
59306;SDS011;47983;53.016;-2.260;2023-04-03T15:49:19;3.30;;;1.38;;
59306;SDS011;47983;53.016;-2.260;2023-04-03T15:54:15;4.72;;;1.20;;
59306;SDS011;47983;53.016;-2.260;2023-04-03T15:56:43;5.95;;;1.52;;
59306;SDS011;47983;53.016;-2.260;2023-04-03T15:59:11;7.03;;;1.63;;
59306;SDS011;47983;53.016;-2.260;2023-04-03T16:01:39;5.07;;;1.30;;
59306;SDS011;47983;53.016;-2.260;2023-04-03T16:04:07;8.30;;;1.85;;
59306;SDS011;47983;53.016;-2.260;2023-04-03T16:06:36;8.40;;;2.43;;
59306;SDS011;47983;53.016;-2.260;2023-04-03T16:09:05;5.47;;;1.50;;
59306;SDS011;47983;53.016;-2.260;2023-04-03T16:11:34;5.65;;;1.30;;
59306;SDS011;47983;53.016;-2.260;2023-04-03T16:14:02;3.42;;;1.40;;
59306;SDS011;47983;53.016;-2.260;2023-04-03T16:16:30;6.00;;;1.83;;
59306;SDS011;47983;53.016;-2.260;2023-04-03T16:18:59;4.03;;;1.40;;
59306;SDS011;47983;53.016;-2.260;2023-04-03T16:21:27;4.05;;;1.30;;
59306;SDS011;47983;53.016;-2.260;2023-04-03T16:23:56;4.45;;;1.40;;
59306;SDS011;47983;53.016;-2.260;2023-04-03T16:26:27;4.50;;;1.52;;
59306;SDS011;47983;53.016;-2.260;2023-04-03T16:28:55;3.83;;;1.52;;
59306;SDS011;47983;53.016;-2.260;2023-04-03T16:31:23;3.97;;;1.65;;
59306;SDS011;47983;53.016;-2.260;2023-04-03T16:33:52;4.05;;;1.60;;
59306;SDS011;47983;53.016;-2.260;2023-04-03T16:36:20;7.85;;;2.33;;
59306;SDS011;47983;53.016;-2.260;2023-04-03T16:38:47;5.30;;;1.52;;
59306;SDS011;47983;53.016;-2.260;2023-04-03T16:41:15;6.80;;;1.30;;
59306;SDS011;47983;53.016;-2.260;2023-04-03T16:43:43;2.70;;;1.10;;
59306;SDS011;47983;53.016;-2.260;2023-04-03T16:46:10;6.32;;;1.40;;
59306;SDS011;47983;53.016;-2.260;2023-04-03T16:48:38;3.85;;;1.63;;
59306;SDS011;47983;53.016;-2.260;2023-04-03T16:51:06;4.80;;;1.35;;
59306;SDS011;47983;53.016;-2.260;2023-04-03T16:53:33;5.53;;;1.75;;
59306;SDS011;47983;53.016;-2.260;2023-04-03T16:56:02;4.32;;;1.90;;